CEC 2014 Haywood NORAM/Buff-Qualifier & Prologue | Zone4.ca



CEC 2014 Haywood NORAM/Buff-Qualifier & Prologue

Date: Jan 31, 2014
StartList
Location/Lieu: Nakkertok South Nordic Centre
Host Clubs Hôtes: Gatineau-Ottawa XC Clubs

Jury
TD / DT:  Shawn Sinclair 
ATD / DTA  Renée Thibeault 
Dir. Comp. Chief  Jim McCarthy 
CCC Dir. SFC  Dave Dyer 
Heure/Time: 10:00 am
Wind/Vent:  10km/hr Gusty Wind/Vent Dir: SW
Air Temp: -3 Snow/Neige T: -4
Weather/Météo: Sun/Cloud Snow/Neige: Groomed Powder

Open (M) 1.5 km. Free  Sprint Qualification  
Bib Name CCC# CPL SFQ# FIS# DOB U23 Div Club Team Start Time
1 Raphaël Couturier 18415 95.66 11134 3100185 1993 True QC C.N. Skibec CNEPH-NST 9:05:00.00
2 Alexis Turgeon 19686 95.3 2174 3100234 1993 True QC Skinouk CNEPH 9:05:15.00
3 Graham Nishikawa 12673 94.95   3100034 1983 False YT Whitehorse XC NST 9:05:30.00
4 Sébastien Dandurand 28197 94.76     1993 True BC Canmore Nordic CVTC 9:05:45.00
5 Russell Kennedy 25625 94.71   3100268 1991 True AB Canmore Nordic AWCA 9:06:00.00
6 Colin Abbott 14227 94.68   3100191 1990 False YT Whitehorse XC Yukon Elite Squad 9:06:15.00
7 Michael Somppi 13526 94.68   3100160 1988 False ON Lappe Nordic AWCA-NST 9:06:30.00
8 Julien Locke 21432 94.13   3100248 1993 True BC Black Jack XC Team Black Jack 9:06:45.00
9 Yannick Lapierre 14579 93.81 15129 3100202 1992 True AB Nakkertok AWCA 9:07:00.00
10 Simon Lapointe 19621 93.47 1298 3100267 1993 True QC Skinouk CNEPH 9:07:15.00
11 Ezekiel Williams 14195 92.53 18069 3100263 1993 True QC Nakkertok AWCA 9:07:30.00
12 Alex Mahoney 14608 92.19   3100250 1992 True AB Rocky Mountain Racers AWCA 9:07:45.00
13 Bob Thompson 14312 92.1   3100227 1991 True ON Team Hardwood NDC TBay 9:08:00.00
14 Martin Schrama 18392 92   3100199 1992 True BC Whistler Nordic CVTC 9:08:15.00
15 Dominique Moncion-Groulx 19561 91.59 15045 3100251 1993 True QC Nakkertok QCST 9:08:30.00
16 Geoffrey Richards 18425 91.35   3100260 1992 True BC Black Jack XC CVTC 9:08:45.00
17 Kevin Sandau 13504 91.25   3100128 1988 False AB Foothills Nordic AWCA-NST 9:09:00.00
18 Christopher Hamilton 13690 90.86   3100186 1989 False ON Big Thunder Nordic AWCA 9:09:15.00
19 Alexis Morin 24486 90.65 16128 3100297 1993 True QC C.N. Skibec QCST/ U Laval 9:09:30.00
20 Matthew Saurette 19576 90.54   3100271 1994 False AB Rocky Mountain Racers   9:09:45.00
21 Kieran Baird 14542 90.47   3100340 1990 False AB Rocky Mountain Racers RMR 9:10:00.00
22 Colin Ferrie 19558 90.43     1993 True BC Kimberley Nordic Team Black Jack 9:10:15.00
23 Kai Lukowiak 14564 90.37   3100330 1991 False AB Foothills Nordic   9:10:30.00
24 Andrew Brisbin 14594 89.98   3100300 1990 False AB Rocky Mountain Racers   9:10:45.00
25 Nick Monette 19580 89.84   3100252 1993 True ON Team Hardwood NDC TBay 9:11:00.00
26 Jordan Cascagnette 14334 89.69   3100224 1991 True ON Team Hardwood Nipissing U 9:11:15.00
27 Paul Dupuis 14604 89.54   3100240 1993 True AB Canmore Nordic CVTC 9:11:30.00
28 Peter Beisel 18419 88.48   3100226 1991 True ON Carleton U XC Ottawa/Carleton U 9:11:45.00
29 David Palmer 18506 88.48   3100292 1993 True BC Black Jack XC Team Black Jack 9:12:00.00
30 Colin Foley 23746 88.27   3100345 1995 False ON Nakkertok CVTC 9:12:15.00
31 Jack Carlyle 19782 88.1   3100266 1993 True ON Soo Finnish Nordic NDC TBay 9:12:30.00
32 Steffan Lloyd 14503 87.93 12224 3100196 1990 False QC Nakkertok XC Ottawa/Carleton U 9:12:45.00
33 André Marchand 14171 87.54   3100205 1990 False ON XC Ottawa Carleton U 9:13:00.00
34 Scott Fraser 18509 87.34     1993 True AB Canmore Nordic SKST 9:13:15.00
35 Matthias Purdon 14209 87.23   3100259 1989 False ON Georgian Bay Trent U 9:13:30.00
36 Olivier Hamel 25623 87.13 17490 3100316 1996 False QC C.N. Skibec   9:13:45.00
37 Stuart Harden 21549 86.86   3100308 1994 False AB Rocky Mountain Racers   9:14:00.00
38 Evan Palmer Charrette 22598 86.72   3100283 1994 False ON Lappe Nordic NDC TBay 9:14:15.00
39 Victor Hopper 21412 86.37   3100245 1994 True ON Big Thunder Nordic OST/Lakehead U 9:14:30.00
40 Thomas Reed-Métayer 21601 86.36 24039 3100304 1994 False QC C.N. Skibec   9:14:45.00
41 Sam Morris 23638 86.23   3100317 1995 False BC Hollyburn XC CVTC 9:15:00.00
42 Andrew Avis 28641 86.18   3100337 1995 False BC Highland Trailblazers CVTC 9:15:15.00
43 Benjamin Osorio 22606 86     1993 True ON Arrowhead Nordic CVTC 9:15:30.00
44 Carrington Pomeroy 19604 85.72 13784 3100290 1993 True QC Nakkertok Carleton U 9:15:45.00
45 Julien Lamoureux 21454 85.61 14433 3100301 1994 False QC Montériski QCST/Edouard-Montpetit 9:16:00.00
46 Antoine Briand 23624 85.57 25482 3100314 1995 False QC C.N. Skibec F X Garneau 9:16:15.00
47 Matthew Brown 21550 85.55   3100335 1992 True ON Mono Nordic XC Ottawa/Carleton U 9:16:30.00
48 Liam Patterson 14612 85   3100338 1995 False ON Big Thunder Nordic CVTC 9:16:45.00
49 Simon Beaudet 12901 84.58 27283 3100063 1985 False QC C.N. Skibec   9:17:00.00
50 Gavin Shields 19224 83.77     1994 False ON Lappe Nordic   9:17:15.00
51 Nicholas Pigeon 24518 83.69 17545 3100298 1995 False QC Skinouk   9:17:30.00
52 Conor Thompson 22614 83.65 16215 3100302 1994 False QC Montériski QCST 9:17:45.00
53 Hughes Bergeron 22616 83.65 14421 3100272 1994 False QC C.N. Skibec   9:18:00.00
54 Konrad Wiltmann 14138 83.27     1990 False ON Georgian Nordic   9:18:15.00
55 Graham Perry 25760 83.22     1995 False ON Mono Nordic   9:18:30.00
56 David Askwith 25804 82.83   3100336 1995 False ON Georgian Bay   9:18:45.00
57 Peter Hicks 25580 82.53     1996 False AB Canmore Nordic AST 9:19:00.00
58 Symon Stowe 21466 81.96     1994 False ON Nakkertok Carleton U 9:19:15.00
59 Sam Weichel 23733 81.45     1995 False ON Georgian Bay   9:19:30.00
60 Zachary Cristofanilli 25576 81.25 19202 3100291 1996 False QC Orford   9:19:45.00
61 Curtis Marchand 24470 81.23 14122 3100295 1995 False QC Skinouk Heritage Col. 9:20:00.00
62 Samuel Greer 25709 80.68     1996 False ON Highland Trailblazers   9:20:15.00
63 Frédéric Samson 23581 80.13 2788   1995 False QC C.N. Skibec   9:20:30.00
64 Jacob Porter 13507 78.88     1990 False ON Laurentian Nordic Laurentian U 9:20:45.00
65 Patrick Van Walraven 21467 78.84     1994 False ON Nakkertok Carleton U 9:21:00.00
66 Nelson Allan 21483 78.58     1995 False ON Nakkertok Carleton U 9:21:15.00
67 Matt Chalmers 28634 77.82     1993 True ON Highland Trailblazers Nipissing U 9:21:30.00
68 Eloi Lemay 25772 77.63 22714   1995 False QC Fondeurs-Laurentides CEGEP Joliette 9:21:45.00
69 Konrad Kuhne 23589 77.46     1996 False NF Menihek Nordic XCNL 9:22:00.00
70 Isaac Alexander-Cook 27368 76.89     1995 False ON Nakkertok   9:22:15.00
71 Liam Fox 22612 76.59     1994 False ON Varsity Blues U of T Toronto U 9:22:30.00
72 Samuel Pouliot 24468 76.44 16737   1995 False QC Fondeurs-Laurentides   9:22:45.00
73 Fergus Foster 25591 76.36   3100243 1997 False ON Big Thunder Nordic   9:23:00.00
74 Sean Carter 23618 75.41     1995 False MB Red River Nordic Lakehead U 9:23:15.00
75 Kevin Durkee 20518 73.7     1993 True NT Yellowknife Nipissing U 9:23:30.00
76 Jesse Williams 24458 73.4 18068   1995 False QC Nakkertok   9:23:45.00
77 Gabriel Houde 27500 72.99 23954   1995 False QC Défi T.M.   9:24:00.00
78 Seamus Boyd-Porter 27440 72.8     1994 False NF Avalon Nordic XCNL 9:24:15.00
79 Frédérick Tessier-Brassard 25699 71.91 19775   1991 True QC C.N. Skibec   9:24:30.00
80 David Hanson 25785 67.66     1995 False ON Walden Nordic   9:24:45.00
81 Rudolph Guliani 30879 67.3     1994 False ON Varsity Blues U of T Toronto U 9:25:00.00
82 Erik Charron 24480 67.03   3100238 1983 False NF Avalon Nordic XCNL 9:25:15.00
83 Jonah Hudec 24505 0     1995 False NS North Highlands Nordic NSST 9:25:30.00
84 Ewan Craig 32891 0     1993 True ON Laurentian Nordic Laurentian U 9:25:45.00
85 Scott Gillam 31835 0     1995 False ON Kawartha Nordic   9:26:00.00
86 Bryan Stone         1995 True ON Arrowhead Nordic Nipissing U 9:26:15.00
87 Drew Bursey         1994 True ON Laurentian Nordic Laurentian U 9:26:30.00
88 Nansen Murray         1990 False YT Whitehorse XC Carleton U 9:26:45.00
89 Christopher Weller         1994 False ON Carleton U Carleton U 9:27:00.00


Results are posted through an automated system by licenced clubs. For inquires about result corrections please contact the race organizer.

Copyright 2022 - Zone4 Systems zone4.ca       Privacy Policy     Delivery/Refund Policy     Terms of Service    Contact Zone4